sensor_id;sensor_type;location;lat;lon;timestamp;P1;durP1;ratioP1;P2;durP2;ratioP2
42912;SDS011;50720;54.324;18.558;2023-04-25T00:01:37;3.95;;;2.50;;
42912;SDS011;50720;54.324;18.558;2023-04-25T00:04:07;4.30;;;2.78;;
42912;SDS011;50720;54.324;18.558;2023-04-25T00:06:37;4.30;;;2.95;;
42912;SDS011;50720;54.324;18.558;2023-04-25T00:09:07;3.13;;;2.83;;
42912;SDS011;50720;54.324;18.558;2023-04-25T00:11:38;3.47;;;2.65;;
42912;SDS011;50720;54.324;18.558;2023-04-25T00:14:10;3.83;;;2.47;;
42912;SDS011;50720;54.324;18.558;2023-04-25T00:16:40;5.75;;;2.63;;
42912;SDS011;50720;54.324;18.558;2023-04-25T00:19:11;3.45;;;2.60;;
42912;SDS011;50720;54.324;18.558;2023-04-25T00:21:41;3.20;;;2.67;;
42912;SDS011;50720;54.324;18.558;2023-04-25T00:24:13;3.80;;;2.92;;
42912;SDS011;50720;54.324;18.558;2023-04-25T00:26:43;4.60;;;3.27;;
42912;SDS011;50720;54.324;18.558;2023-04-25T00:29:14;3.30;;;3.00;;
42912;SDS011;50720;54.324;18.558;2023-04-25T00:31:44;4.00;;;2.88;;
42912;SDS011;50720;54.324;18.558;2023-04-25T00:34:13;7.13;;;4.10;;
42912;SDS011;50720;54.324;18.558;2023-04-25T00:36:43;7.00;;;4.38;;
42912;SDS011;50720;54.324;18.558;2023-04-25T00:39:12;6.43;;;5.05;;
42912;SDS011;50720;54.324;18.558;2023-04-25T00:41:42;6.55;;;3.88;;
42912;SDS011;50720;54.324;18.558;2023-04-25T00:44:15;7.57;;;4.63;;
42912;SDS011;50720;54.324;18.558;2023-04-25T00:46:45;6.78;;;5.10;;
42912;SDS011;50720;54.324;18.558;2023-04-25T00:49:16;6.13;;;4.65;;
42912;SDS011;50720;54.324;18.558;2023-04-25T00:51:46;9.00;;;5.00;;
42912;SDS011;50720;54.324;18.558;2023-04-25T00:54:16;8.70;;;5.38;;
42912;SDS011;50720;54.324;18.558;2023-04-25T00:56:46;6.97;;;5.57;;
42912;SDS011;50720;54.324;18.558;2023-04-25T00:59:17;8.40;;;5.85;;
42912;SDS011;50720;54.324;18.558;2023-04-25T01:01:48;9.73;;;6.28;;
42912;SDS011;50720;54.324;18.558;2023-04-25T01:04:18;6.70;;;4.95;;
42912;SDS011;50720;54.324;18.558;2023-04-25T01:06:48;5.37;;;4.77;;
42912;SDS011;50720;54.324;18.558;2023-04-25T01:09:18;5.27;;;4.60;;
42912;SDS011;50720;54.324;18.558;2023-04-25T01:11:48;6.03;;;5.00;;
42912;SDS011;50720;54.324;18.558;2023-04-25T01:14:19;9.53;;;5.43;;
42912;SDS011;50720;54.324;18.558;2023-04-25T01:16:49;5.75;;;4.78;;
42912;SDS011;50720;54.324;18.558;2023-04-25T01:19:20;6.63;;;5.25;;
42912;SDS011;50720;54.324;18.558;2023-04-25T01:21:51;7.13;;;5.57;;
42912;SDS011;50720;54.324;18.558;2023-04-25T01:24:21;8.63;;;5.30;;
42912;SDS011;50720;54.324;18.558;2023-04-25T01:26:51;6.53;;;5.10;;
42912;SDS011;50720;54.324;18.558;2023-04-25T01:29:23;6.00;;;5.40;;
42912;SDS011;50720;54.324;18.558;2023-04-25T01:31:53;10.17;;;5.33;;
42912;SDS011;50720;54.324;18.558;2023-04-25T01:34:23;5.88;;;4.78;;
42912;SDS011;50720;54.324;18.558;2023-04-25T01:36:55;7.50;;;4.60;;
42912;SDS011;50720;54.324;18.558;2023-04-25T01:41:54;5.53;;;4.28;;
42912;SDS011;50720;54.324;18.558;2023-04-25T01:44:23;7.10;;;5.03;;
42912;SDS011;50720;54.324;18.558;2023-04-25T01:46:53;6.30;;;5.20;;
42912;SDS011;50720;54.324;18.558;2023-04-25T01:49:23;5.20;;;4.70;;
42912;SDS011;50720;54.324;18.558;2023-04-25T01:51:55;5.22;;;4.50;;
42912;SDS011;50720;54.324;18.558;2023-04-25T01:56:55;5.53;;;4.07;;
42912;SDS011;50720;54.324;18.558;2023-04-25T01:59:26;6.60;;;4.50;;
42912;SDS011;50720;54.324;18.558;2023-04-25T02:01:56;5.97;;;5.03;;
42912;SDS011;50720;54.324;18.558;2023-04-25T02:04:25;7.28;;;4.90;;
42912;SDS011;50720;54.324;18.558;2023-04-25T02:06:57;6.85;;;5.82;;
42912;SDS011;50720;54.324;18.558;2023-04-25T02:09:26;5.20;;;4.70;;
42912;SDS011;50720;54.324;18.558;2023-04-25T02:11:56;7.95;;;4.95;;
42912;SDS011;50720;54.324;18.558;2023-04-25T02:14:26;6.40;;;4.80;;
42912;SDS011;50720;54.324;18.558;2023-04-25T02:16:56;5.68;;;4.75;;
42912;SDS011;50720;54.324;18.558;2023-04-25T02:19:26;5.15;;;4.65;;
42912;SDS011;50720;54.324;18.558;2023-04-25T02:21:57;6.15;;;4.82;;
42912;SDS011;50720;54.324;18.558;2023-04-25T02:26:56;7.45;;;4.43;;
42912;SDS011;50720;54.324;18.558;2023-04-25T02:29:25;5.10;;;4.35;;
42912;SDS011;50720;54.324;18.558;2023-04-25T02:31:55;5.75;;;4.88;;
42912;SDS011;50720;54.324;18.558;2023-04-25T02:34:24;5.35;;;4.47;;
42912;SDS011;50720;54.324;18.558;2023-04-25T02:36:55;5.68;;;4.95;;
42912;SDS011;50720;54.324;18.558;2023-04-25T02:39:26;6.72;;;4.63;;
42912;SDS011;50720;54.324;18.558;2023-04-25T02:42:15;6.00;;;5.10;;
42912;SDS011;50720;54.324;18.558;2023-04-25T02:44:44;5.63;;;4.53;;
42912;SDS011;50720;54.324;18.558;2023-04-25T02:47:14;5.60;;;4.40;;
42912;SDS011;50720;54.324;18.558;2023-04-25T02:49:44;6.15;;;5.00;;
42912;SDS011;50720;54.324;18.558;2023-04-25T02:52:16;7.78;;;4.90;;
42912;SDS011;50720;54.324;18.558;2023-04-25T02:54:45;5.22;;;4.63;;
42912;SDS011;50720;54.324;18.558;2023-04-25T02:57:15;8.10;;;5.10;;
42912;SDS011;50720;54.324;18.558;2023-04-25T02:59:44;5.40;;;4.90;;
42912;SDS011;50720;54.324;18.558;2023-04-25T03:02:14;5.95;;;4.35;;
42912;SDS011;50720;54.324;18.558;2023-04-25T03:04:44;5.65;;;5.00;;
42912;SDS011;50720;54.324;18.558;2023-04-25T03:07:15;5.77;;;5.10;;
42912;SDS011;50720;54.324;18.558;2023-04-25T03:09:45;7.78;;;5.03;;
42912;SDS011;50720;54.324;18.558;2023-04-25T03:12:15;9.67;;;4.53;;
42912;SDS011;50720;54.324;18.558;2023-04-25T03:14:44;5.95;;;4.85;;
42912;SDS011;50720;54.324;18.558;2023-04-25T03:17:15;5.50;;;5.00;;
42912;SDS011;50720;54.324;18.558;2023-04-25T03:19:44;6.25;;;5.65;;
42912;SDS011;50720;54.324;18.558;2023-04-25T03:22:16;6.85;;;6.13;;
42912;SDS011;50720;54.324;18.558;2023-04-25T03:24:45;6.55;;;5.15;;
42912;SDS011;50720;54.324;18.558;2023-04-25T03:27:15;9.10;;;5.50;;
42912;SDS011;50720;54.324;18.558;2023-04-25T03:29:45;7.18;;;5.80;;
42912;SDS011;50720;54.324;18.558;2023-04-25T03:32:15;6.40;;;5.75;;
42912;SDS011;50720;54.324;18.558;2023-04-25T03:34:44;6.57;;;5.87;;
42912;SDS011;50720;54.324;18.558;2023-04-25T03:37:16;5.97;;;5.38;;
42912;SDS011;50720;54.324;18.558;2023-04-25T03:42:14;6.78;;;5.10;;
42912;SDS011;50720;54.324;18.558;2023-04-25T03:44:44;7.03;;;5.72;;
42912;SDS011;50720;54.324;18.558;2023-04-25T03:47:14;6.60;;;5.65;;
42912;SDS011;50720;54.324;18.558;2023-04-25T03:49:44;6.55;;;5.90;;
42912;SDS011;50720;54.324;18.558;2023-04-25T03:52:14;7.50;;;5.93;;
42912;SDS011;50720;54.324;18.558;2023-04-25T03:54:44;6.25;;;5.63;;
42912;SDS011;50720;54.324;18.558;2023-04-25T03:57:14;8.48;;;6.15;;
42912;SDS011;50720;54.324;18.558;2023-04-25T03:59:44;9.13;;;5.88;;
42912;SDS011;50720;54.324;18.558;2023-04-25T04:02:13;7.35;;;5.65;;
42912;SDS011;50720;54.324;18.558;2023-04-25T04:04:43;8.98;;;5.43;;
42912;SDS011;50720;54.324;18.558;2023-04-25T04:07:13;5.43;;;4.75;;
42912;SDS011;50720;54.324;18.558;2023-04-25T04:09:44;7.15;;;5.70;;
42912;SDS011;50720;54.324;18.558;2023-04-25T04:12:14;6.70;;;5.45;;
42912;SDS011;50720;54.324;18.558;2023-04-25T04:14:43;6.97;;;5.90;;
42912;SDS011;50720;54.324;18.558;2023-04-25T04:17:13;6.83;;;5.97;;
42912;SDS011;50720;54.324;18.558;2023-04-25T04:19:43;9.88;;;6.60;;
42912;SDS011;50720;54.324;18.558;2023-04-25T04:22:12;7.68;;;6.22;;
42912;SDS011;50720;54.324;18.558;2023-04-25T04:24:43;8.07;;;6.05;;
42912;SDS011;50720;54.324;18.558;2023-04-25T04:27:15;8.02;;;6.35;;
42912;SDS011;50720;54.324;18.558;2023-04-25T04:29:46;7.13;;;5.45;;
42912;SDS011;50720;54.324;18.558;2023-04-25T04:32:16;7.63;;;5.47;;
42912;SDS011;50720;54.324;18.558;2023-04-25T04:34:45;9.73;;;5.95;;
42912;SDS011;50720;54.324;18.558;2023-04-25T04:37:16;8.70;;;6.20;;
42912;SDS011;50720;54.324;18.558;2023-04-25T04:39:47;7.85;;;6.22;;
42912;SDS011;50720;54.324;18.558;2023-04-25T04:42:17;8.30;;;6.75;;
42912;SDS011;50720;54.324;18.558;2023-04-25T04:44:48;6.55;;;5.43;;
42912;SDS011;50720;54.324;18.558;2023-04-25T04:47:19;7.03;;;5.68;;
42912;SDS011;50720;54.324;18.558;2023-04-25T04:49:50;7.40;;;5.85;;
42912;SDS011;50720;54.324;18.558;2023-04-25T04:52:20;7.45;;;5.68;;
42912;SDS011;50720;54.324;18.558;2023-04-25T04:54:51;7.00;;;5.60;;
42912;SDS011;50720;54.324;18.558;2023-04-25T04:57:21;8.55;;;4.93;;
42912;SDS011;50720;54.324;18.558;2023-04-25T04:59:50;6.10;;;5.18;;
42912;SDS011;50720;54.324;18.558;2023-04-25T05:02:20;6.80;;;5.00;;
42912;SDS011;50720;54.324;18.558;2023-04-25T05:04:50;6.88;;;5.20;;
42912;SDS011;50720;54.324;18.558;2023-04-25T05:07:20;7.63;;;5.45;;
42912;SDS011;50720;54.324;18.558;2023-04-25T05:09:51;6.68;;;4.78;;
42912;SDS011;50720;54.324;18.558;2023-04-25T05:12:20;7.55;;;5.13;;
42912;SDS011;50720;54.324;18.558;2023-04-25T05:14:50;6.53;;;5.15;;
42912;SDS011;50720;54.324;18.558;2023-04-25T05:17:19;7.47;;;5.47;;
42912;SDS011;50720;54.324;18.558;2023-04-25T05:19:49;6.38;;;4.75;;
42912;SDS011;50720;54.324;18.558;2023-04-25T05:22:19;8.15;;;5.15;;
42912;SDS011;50720;54.324;18.558;2023-04-25T05:24:48;7.47;;;5.20;;
42912;SDS011;50720;54.324;18.558;2023-04-25T05:27:23;5.70;;;4.40;;
42912;SDS011;50720;54.324;18.558;2023-04-25T05:29:52;7.22;;;4.63;;
42912;SDS011;50720;54.324;18.558;2023-04-25T05:32:22;8.80;;;4.93;;
42912;SDS011;50720;54.324;18.558;2023-04-25T05:34:53;5.50;;;4.78;;
42912;SDS011;50720;54.324;18.558;2023-04-25T05:37:23;7.25;;;4.75;;
42912;SDS011;50720;54.324;18.558;2023-04-25T05:39:53;7.73;;;5.07;;
42912;SDS011;50720;54.324;18.558;2023-04-25T05:42:24;8.98;;;4.57;;
42912;SDS011;50720;54.324;18.558;2023-04-25T05:44:53;7.25;;;5.20;;
42912;SDS011;50720;54.324;18.558;2023-04-25T05:47:23;8.60;;;4.90;;
42912;SDS011;50720;54.324;18.558;2023-04-25T05:49:53;6.97;;;4.45;;
42912;SDS011;50720;54.324;18.558;2023-04-25T05:52:23;5.28;;;4.18;;
42912;SDS011;50720;54.324;18.558;2023-04-25T05:54:52;7.13;;;4.35;;
42912;SDS011;50720;54.324;18.558;2023-04-25T05:57:24;6.78;;;4.00;;
42912;SDS011;50720;54.324;18.558;2023-04-25T05:59:55;7.05;;;4.65;;
42912;SDS011;50720;54.324;18.558;2023-04-25T06:02:25;6.90;;;5.00;;
42912;SDS011;50720;54.324;18.558;2023-04-25T06:04:54;6.55;;;4.40;;
42912;SDS011;50720;54.324;18.558;2023-04-25T06:07:25;7.55;;;4.25;;
42912;SDS011;50720;54.324;18.558;2023-04-25T06:09:54;9.25;;;4.78;;
42912;SDS011;50720;54.324;18.558;2023-04-25T06:12:25;6.50;;;4.88;;
42912;SDS011;50720;54.324;18.558;2023-04-25T06:14:55;7.68;;;4.22;;
42912;SDS011;50720;54.324;18.558;2023-04-25T06:17:25;5.00;;;3.97;;
42912;SDS011;50720;54.324;18.558;2023-04-25T06:19:54;4.03;;;3.30;;
42912;SDS011;50720;54.324;18.558;2023-04-25T06:22:25;6.07;;;3.67;;
42912;SDS011;50720;54.324;18.558;2023-04-25T06:24:54;6.72;;;3.67;;
42912;SDS011;50720;54.324;18.558;2023-04-25T06:27:27;6.65;;;4.00;;
42912;SDS011;50720;54.324;18.558;2023-04-25T06:29:57;4.60;;;3.33;;
42912;SDS011;50720;54.324;18.558;2023-04-25T06:32:27;4.25;;;3.38;;
42912;SDS011;50720;54.324;18.558;2023-04-25T06:34:57;4.82;;;3.72;;
42912;SDS011;50720;54.324;18.558;2023-04-25T06:37:27;10.87;;;4.13;;
42912;SDS011;50720;54.324;18.558;2023-04-25T06:39:57;6.82;;;3.50;;
42912;SDS011;50720;54.324;18.558;2023-04-25T06:42:28;6.63;;;3.85;;
42912;SDS011;50720;54.324;18.558;2023-04-25T06:44:57;8.57;;;4.70;;
42912;SDS011;50720;54.324;18.558;2023-04-25T06:47:27;8.30;;;4.10;;
42912;SDS011;50720;54.324;18.558;2023-04-25T06:49:57;7.22;;;3.90;;
42912;SDS011;50720;54.324;18.558;2023-04-25T06:52:27;15.98;;;5.13;;
42912;SDS011;50720;54.324;18.558;2023-04-25T06:54:56;8.40;;;4.30;;
42912;SDS011;50720;54.324;18.558;2023-04-25T06:57:28;4.77;;;3.80;;
42912;SDS011;50720;54.324;18.558;2023-04-25T06:59:57;10.20;;;4.57;;
42912;SDS011;50720;54.324;18.558;2023-04-25T07:02:28;7.85;;;4.00;;
42912;SDS011;50720;54.324;18.558;2023-04-25T07:04:58;6.03;;;3.92;;
42912;SDS011;50720;54.324;18.558;2023-04-25T07:07:28;8.50;;;3.80;;
42912;SDS011;50720;54.324;18.558;2023-04-25T07:09:57;7.93;;;4.22;;
42912;SDS011;50720;54.324;18.558;2023-04-25T07:12:28;5.68;;;3.63;;
42912;SDS011;50720;54.324;18.558;2023-04-25T07:17:33;4.20;;;2.85;;
42912;SDS011;50720;54.324;18.558;2023-04-25T07:20:03;3.75;;;2.60;;
42912;SDS011;50720;54.324;18.558;2023-04-25T07:22:35;5.70;;;2.70;;
42912;SDS011;50720;54.324;18.558;2023-04-25T07:25:05;6.05;;;2.70;;
42912;SDS011;50720;54.324;18.558;2023-04-25T07:27:37;7.40;;;3.15;;
42912;SDS011;50720;54.324;18.558;2023-04-25T07:30:07;4.03;;;2.72;;
42912;SDS011;50720;54.324;18.558;2023-04-25T07:35:07;5.00;;;2.85;;
42912;SDS011;50720;54.324;18.558;2023-04-25T07:37:37;3.80;;;2.40;;
42912;SDS011;50720;54.324;18.558;2023-04-25T07:40:07;4.25;;;1.83;;
42912;SDS011;50720;54.324;18.558;2023-04-25T07:42:40;2.08;;;1.77;;
42912;SDS011;50720;54.324;18.558;2023-04-25T07:47:39;3.22;;;2.08;;
42912;SDS011;50720;54.324;18.558;2023-04-25T07:50:09;6.53;;;2.20;;
42912;SDS011;50720;54.324;18.558;2023-04-25T07:52:39;3.38;;;1.95;;
42912;SDS011;50720;54.324;18.558;2023-04-25T07:55:09;6.85;;;2.22;;
42912;SDS011;50720;54.324;18.558;2023-04-25T07:57:39;5.40;;;1.90;;
42912;SDS011;50720;54.324;18.558;2023-04-25T08:00:09;4.93;;;2.40;;
42912;SDS011;50720;54.324;18.558;2023-04-25T08:02:40;3.92;;;1.88;;
42912;SDS011;50720;54.324;18.558;2023-04-25T08:05:10;4.13;;;2.08;;
42912;SDS011;50720;54.324;18.558;2023-04-25T08:07:42;6.53;;;2.28;;
42912;SDS011;50720;54.324;18.558;2023-04-25T08:10:13;4.10;;;1.75;;
42912;SDS011;50720;54.324;18.558;2023-04-25T08:12:44;1.95;;;1.67;;
42912;SDS011;50720;54.324;18.558;2023-04-25T08:15:13;4.50;;;1.65;;
42912;SDS011;50720;54.324;18.558;2023-04-25T08:17:43;3.00;;;1.98;;
42912;SDS011;50720;54.324;18.558;2023-04-25T08:20:12;2.25;;;1.40;;
42912;SDS011;50720;54.324;18.558;2023-04-25T08:22:42;3.33;;;1.50;;
42912;SDS011;50720;54.324;18.558;2023-04-25T08:25:12;2.00;;;1.33;;
42912;SDS011;50720;54.324;18.558;2023-04-25T08:27:41;6.22;;;1.55;;
42912;SDS011;50720;54.324;18.558;2023-04-25T08:30:13;2.00;;;1.10;;
42912;SDS011;50720;54.324;18.558;2023-04-25T08:32:42;1.90;;;1.40;;
42912;SDS011;50720;54.324;18.558;2023-04-25T08:35:12;1.92;;;1.10;;
42912;SDS011;50720;54.324;18.558;2023-04-25T08:37:43;2.10;;;1.45;;
42912;SDS011;50720;54.324;18.558;2023-04-25T08:40:14;2.28;;;1.15;;
42912;SDS011;50720;54.324;18.558;2023-04-25T08:42:46;2.58;;;1.60;;
42912;SDS011;50720;54.324;18.558;2023-04-25T08:45:17;3.10;;;1.20;;
42912;SDS011;50720;54.324;18.558;2023-04-25T08:47:48;2.40;;;1.25;;
42912;SDS011;50720;54.324;18.558;2023-04-25T08:50:21;1.75;;;1.23;;
42912;SDS011;50720;54.324;18.558;2023-04-25T08:52:53;3.15;;;1.60;;
42912;SDS011;50720;54.324;18.558;2023-04-25T08:55:26;2.45;;;1.45;;
42912;SDS011;50720;54.324;18.558;2023-04-25T08:57:57;1.35;;;0.90;;
42912;SDS011;50720;54.324;18.558;2023-04-25T09:00:28;4.88;;;1.23;;
42912;SDS011;50720;54.324;18.558;2023-04-25T09:02:57;2.25;;;1.38;;
42912;SDS011;50720;54.324;18.558;2023-04-25T09:05:28;2.85;;;1.20;;
42912;SDS011;50720;54.324;18.558;2023-04-25T09:07:58;2.33;;;1.10;;
42912;SDS011;50720;54.324;18.558;2023-04-25T09:10:28;5.07;;;1.40;;
42912;SDS011;50720;54.324;18.558;2023-04-25T09:13:05;1.58;;;1.45;;
42912;SDS011;50720;54.324;18.558;2023-04-25T09:15:47;6.65;;;1.60;;
42912;SDS011;50720;54.324;18.558;2023-04-25T09:18:24;2.38;;;2.13;;
42912;SDS011;50720;54.324;18.558;2023-04-25T09:20:58;2.85;;;1.85;;
42912;SDS011;50720;54.324;18.558;2023-04-25T09:23:40;49.30;;;7.32;;
42912;SDS011;50720;54.324;18.558;2023-04-25T09:26:13;11.73;;;2.08;;
42912;SDS011;50720;54.324;18.558;2023-04-25T09:28:45;2.28;;;1.48;;
42912;SDS011;50720;54.324;18.558;2023-04-25T09:31:21;2.40;;;2.10;;
42912;SDS011;50720;54.324;18.558;2023-04-25T09:33:58;5.05;;;1.50;;
42912;SDS011;50720;54.324;18.558;2023-04-25T09:36:29;3.20;;;1.23;;
42912;SDS011;50720;54.324;18.558;2023-04-25T09:39:00;1.63;;;1.03;;
42912;SDS011;50720;54.324;18.558;2023-04-25T09:41:31;2.58;;;1.45;;
42912;SDS011;50720;54.324;18.558;2023-04-25T09:44:07;2.42;;;1.30;;
42912;SDS011;50720;54.324;18.558;2023-04-25T09:46:37;3.17;;;1.15;;
42912;SDS011;50720;54.324;18.558;2023-04-25T09:49:07;4.32;;;1.40;;
42912;SDS011;50720;54.324;18.558;2023-04-25T09:51:37;1.63;;;1.00;;
42912;SDS011;50720;54.324;18.558;2023-04-25T09:54:06;5.70;;;1.45;;
42912;SDS011;50720;54.324;18.558;2023-04-25T09:56:36;1.48;;;1.38;;
42912;SDS011;50720;54.324;18.558;2023-04-25T09:59:08;2.22;;;1.80;;
42912;SDS011;50720;54.324;18.558;2023-04-25T10:01:39;2.90;;;1.25;;
42912;SDS011;50720;54.324;18.558;2023-04-25T10:04:11;3.40;;;1.13;;
42912;SDS011;50720;54.324;18.558;2023-04-25T10:06:43;3.88;;;1.27;;
42912;SDS011;50720;54.324;18.558;2023-04-25T10:09:14;4.20;;;1.60;;
42912;SDS011;50720;54.324;18.558;2023-04-25T10:11:46;1.67;;;1.30;;
42912;SDS011;50720;54.324;18.558;2023-04-25T10:14:17;1.52;;;1.35;;
42912;SDS011;50720;54.324;18.558;2023-04-25T10:16:47;2.38;;;1.10;;
42912;SDS011;50720;54.324;18.558;2023-04-25T10:19:20;5.97;;;2.08;;
42912;SDS011;50720;54.324;18.558;2023-04-25T10:21:52;2.08;;;1.25;;
42912;SDS011;50720;54.324;18.558;2023-04-25T10:24:24;4.18;;;1.60;;
42912;SDS011;50720;54.324;18.558;2023-04-25T10:29:26;1.23;;;0.80;;
42912;SDS011;50720;54.324;18.558;2023-04-25T10:31:56;1.58;;;1.40;;
42912;SDS011;50720;54.324;18.558;2023-04-25T10:34:37;1.83;;;1.00;;
42912;SDS011;50720;54.324;18.558;2023-04-25T10:37:09;2.67;;;0.88;;
42912;SDS011;50720;54.324;18.558;2023-04-25T10:39:39;4.65;;;0.85;;
42912;SDS011;50720;54.324;18.558;2023-04-25T10:42:10;4.15;;;0.68;;
42912;SDS011;50720;54.324;18.558;2023-04-25T10:44:56;1.48;;;0.93;;
42912;SDS011;50720;54.324;18.558;2023-04-25T10:47:35;2.08;;;1.33;;
42912;SDS011;50720;54.324;18.558;2023-04-25T10:50:05;3.38;;;1.20;;
42912;SDS011;50720;54.324;18.558;2023-04-25T10:52:38;3.50;;;1.13;;
42912;SDS011;50720;54.324;18.558;2023-04-25T10:55:08;5.25;;;1.40;;
42912;SDS011;50720;54.324;18.558;2023-04-25T10:57:39;1.77;;;1.33;;
42912;SDS011;50720;54.324;18.558;2023-04-25T11:00:17;1.45;;;1.33;;
42912;SDS011;50720;54.324;18.558;2023-04-25T11:02:57;1.60;;;1.00;;
42912;SDS011;50720;54.324;18.558;2023-04-25T11:05:29;1.52;;;1.20;;
42912;SDS011;50720;54.324;18.558;2023-04-25T11:08:13;4.47;;;1.42;;
42912;SDS011;50720;54.324;18.558;2023-04-25T11:10:49;5.13;;;1.60;;
42912;SDS011;50720;54.324;18.558;2023-04-25T11:13:20;2.70;;;1.30;;
42912;SDS011;50720;54.324;18.558;2023-04-25T11:15:52;5.60;;;1.50;;
42912;SDS011;50720;54.324;18.558;2023-04-25T11:18:40;3.67;;;1.27;;
42912;SDS011;50720;54.324;18.558;2023-04-25T11:21:10;1.60;;;1.48;;
42912;SDS011;50720;54.324;18.558;2023-04-25T11:23:40;4.83;;;1.33;;
42912;SDS011;50720;54.324;18.558;2023-04-25T11:26:13;2.70;;;1.40;;
42912;SDS011;50720;54.324;18.558;2023-04-25T11:28:44;3.17;;;1.70;;
42912;SDS011;50720;54.324;18.558;2023-04-25T11:31:18;2.28;;;1.50;;
42912;SDS011;50720;54.324;18.558;2023-04-25T11:33:49;1.27;;;1.17;;
42912;SDS011;50720;54.324;18.558;2023-04-25T11:36:20;1.70;;;1.02;;
42912;SDS011;50720;54.324;18.558;2023-04-25T11:38:53;2.28;;;1.42;;
42912;SDS011;50720;54.324;18.558;2023-04-25T11:41:23;2.13;;;1.30;;
42912;SDS011;50720;54.324;18.558;2023-04-25T11:43:54;3.33;;;1.83;;
42912;SDS011;50720;54.324;18.558;2023-04-25T11:46:26;7.32;;;2.38;;
42912;SDS011;50720;54.324;18.558;2023-04-25T11:48:56;3.03;;;1.48;;
42912;SDS011;50720;54.324;18.558;2023-04-25T11:51:26;2.53;;;1.75;;
42912;SDS011;50720;54.324;18.558;2023-04-25T11:53:55;4.05;;;1.77;;
42912;SDS011;50720;54.324;18.558;2023-04-25T11:56:25;3.60;;;1.30;;
42912;SDS011;50720;54.324;18.558;2023-04-25T11:58:56;3.72;;;2.05;;
42912;SDS011;50720;54.324;18.558;2023-04-25T12:01:28;3.13;;;1.40;;
42912;SDS011;50720;54.324;18.558;2023-04-25T12:04:12;3.17;;;1.70;;
42912;SDS011;50720;54.324;18.558;2023-04-25T12:06:43;5.32;;;2.40;;
42912;SDS011;50720;54.324;18.558;2023-04-25T12:09:15;3.58;;;2.17;;
42912;SDS011;50720;54.324;18.558;2023-04-25T12:14:26;6.18;;;2.05;;
42912;SDS011;50720;54.324;18.558;2023-04-25T12:16:58;5.03;;;1.60;;
42912;SDS011;50720;54.324;18.558;2023-04-25T12:19:31;2.60;;;1.35;;
42912;SDS011;50720;54.324;18.558;2023-04-25T12:22:02;2.13;;;1.50;;
42912;SDS011;50720;54.324;18.558;2023-04-25T12:24:33;3.72;;;1.60;;
42912;SDS011;50720;54.324;18.558;2023-04-25T12:27:05;2.92;;;1.08;;
42912;SDS011;50720;54.324;18.558;2023-04-25T12:29:36;2.55;;;1.42;;
42912;SDS011;50720;54.324;18.558;2023-04-25T12:32:17;6.25;;;1.92;;
42912;SDS011;50720;54.324;18.558;2023-04-25T12:34:46;5.40;;;2.00;;
42912;SDS011;50720;54.324;18.558;2023-04-25T12:37:16;3.90;;;1.55;;
42912;SDS011;50720;54.324;18.558;2023-04-25T12:39:45;6.18;;;2.22;;
42912;SDS011;50720;54.324;18.558;2023-04-25T12:42:15;4.57;;;1.90;;
42912;SDS011;50720;54.324;18.558;2023-04-25T12:44:44;5.25;;;1.60;;
42912;SDS011;50720;54.324;18.558;2023-04-25T12:47:14;3.25;;;1.92;;
42912;SDS011;50720;54.324;18.558;2023-04-25T12:49:46;4.03;;;1.67;;
42912;SDS011;50720;54.324;18.558;2023-04-25T12:52:15;3.45;;;1.88;;
42912;SDS011;50720;54.324;18.558;2023-04-25T12:54:45;9.90;;;2.72;;
42912;SDS011;50720;54.324;18.558;2023-04-25T12:57:14;11.18;;;2.03;;
42912;SDS011;50720;54.324;18.558;2023-04-25T12:59:45;6.13;;;2.22;;
42912;SDS011;50720;54.324;18.558;2023-04-25T13:02:14;6.30;;;2.53;;
42912;SDS011;50720;54.324;18.558;2023-04-25T13:04:46;9.18;;;2.85;;
42912;SDS011;50720;54.324;18.558;2023-04-25T13:09:45;11.73;;;3.75;;
42912;SDS011;50720;54.324;18.558;2023-04-25T13:12:14;6.05;;;2.65;;
42912;SDS011;50720;54.324;18.558;2023-04-25T13:14:44;2.90;;;2.15;;
42912;SDS011;50720;54.324;18.558;2023-04-25T13:17:14;11.75;;;4.03;;
42912;SDS011;50720;54.324;18.558;2023-04-25T13:19:43;6.07;;;2.67;;
42912;SDS011;50720;54.324;18.558;2023-04-25T13:24:44;3.38;;;2.17;;
42912;SDS011;50720;54.324;18.558;2023-04-25T13:27:13;5.57;;;2.90;;
42912;SDS011;50720;54.324;18.558;2023-04-25T13:29:43;8.43;;;2.70;;
42912;SDS011;50720;54.324;18.558;2023-04-25T13:32:13;4.22;;;2.35;;
42912;SDS011;50720;54.324;18.558;2023-04-25T13:34:43;5.40;;;2.40;;
42912;SDS011;50720;54.324;18.558;2023-04-25T13:37:14;6.43;;;2.42;;
42912;SDS011;50720;54.324;18.558;2023-04-25T13:39:44;8.27;;;2.50;;
42912;SDS011;50720;54.324;18.558;2023-04-25T13:42:14;7.38;;;2.88;;
42912;SDS011;50720;54.324;18.558;2023-04-25T13:44:44;6.53;;;2.35;;
42912;SDS011;50720;54.324;18.558;2023-04-25T13:47:13;3.45;;;2.20;;
42912;SDS011;50720;54.324;18.558;2023-04-25T13:49:43;6.97;;;2.35;;
42912;SDS011;50720;54.324;18.558;2023-04-25T13:54:43;9.05;;;3.35;;
42912;SDS011;50720;54.324;18.558;2023-04-25T13:57:13;3.95;;;2.05;;
42912;SDS011;50720;54.324;18.558;2023-04-25T13:59:43;5.32;;;2.60;;
42912;SDS011;50720;54.324;18.558;2023-04-25T14:02:13;9.60;;;1.90;;
42912;SDS011;50720;54.324;18.558;2023-04-25T14:04:42;5.00;;;2.17;;
42912;SDS011;50720;54.324;18.558;2023-04-25T14:07:13;6.95;;;2.50;;
42912;SDS011;50720;54.324;18.558;2023-04-25T14:09:45;5.47;;;3.05;;
42912;SDS011;50720;54.324;18.558;2023-04-25T14:12:16;4.68;;;2.05;;
42912;SDS011;50720;54.324;18.558;2023-04-25T14:14:46;3.60;;;1.98;;
42912;SDS011;50720;54.324;18.558;2023-04-25T14:17:16;5.53;;;1.90;;
42912;SDS011;50720;54.324;18.558;2023-04-25T14:19:45;5.70;;;2.20;;
42912;SDS011;50720;54.324;18.558;2023-04-25T14:22:16;4.43;;;2.03;;
42912;SDS011;50720;54.324;18.558;2023-04-25T14:24:47;5.13;;;2.42;;
42912;SDS011;50720;54.324;18.558;2023-04-25T14:27:16;4.53;;;2.33;;
42912;SDS011;50720;54.324;18.558;2023-04-25T14:29:46;5.93;;;2.10;;
42912;SDS011;50720;54.324;18.558;2023-04-25T14:32:16;5.63;;;2.05;;
42912;SDS011;50720;54.324;18.558;2023-04-25T14:34:45;5.80;;;2.17;;
42912;SDS011;50720;54.324;18.558;2023-04-25T14:37:15;10.45;;;3.00;;
42912;SDS011;50720;54.324;18.558;2023-04-25T14:39:46;8.10;;;2.75;;
42912;SDS011;50720;54.324;18.558;2023-04-25T14:42:15;13.75;;;2.97;;
42912;SDS011;50720;54.324;18.558;2023-04-25T14:44:45;10.13;;;3.10;;
42912;SDS011;50720;54.324;18.558;2023-04-25T14:47:14;11.10;;;3.30;;
42912;SDS011;50720;54.324;18.558;2023-04-25T14:49:45;12.70;;;3.25;;
42912;SDS011;50720;54.324;18.558;2023-04-25T14:52:22;6.43;;;3.45;;
42912;SDS011;50720;54.324;18.558;2023-04-25T14:54:52;14.73;;;3.40;;
42912;SDS011;50720;54.324;18.558;2023-04-25T14:57:22;9.57;;;3.30;;
42912;SDS011;50720;54.324;18.558;2023-04-25T14:59:52;13.77;;;3.50;;
42912;SDS011;50720;54.324;18.558;2023-04-25T15:02:21;15.10;;;5.07;;
42912;SDS011;50720;54.324;18.558;2023-04-25T15:04:52;15.23;;;4.13;;
42912;SDS011;50720;54.324;18.558;2023-04-25T15:07:24;8.07;;;3.72;;
42912;SDS011;50720;54.324;18.558;2023-04-25T15:09:54;11.30;;;3.33;;
42912;SDS011;50720;54.324;18.558;2023-04-25T15:12:23;9.07;;;2.97;;
42912;SDS011;50720;54.324;18.558;2023-04-25T15:14:55;10.45;;;3.97;;
42912;SDS011;50720;54.324;18.558;2023-04-25T15:17:25;10.23;;;3.22;;
42912;SDS011;50720;54.324;18.558;2023-04-25T15:19:58;9.60;;;2.63;;
42912;SDS011;50720;54.324;18.558;2023-04-25T15:22:29;8.57;;;3.47;;
42912;SDS011;50720;54.324;18.558;2023-04-25T15:24:59;12.85;;;3.88;;